Irvine, United Kingdom
Current Conditions -  °F | °C
As of 10:20 AM on Monday 22 Dec 2014 (Local Time) from EGPK Reporting Station
Rain Showers Rain Showers  
Wind Chill: 44°   Ceiling: 3800
Heat Index: 48°   Visibility: 6mi
Dew Point: 46°   Wind: 9mph
Humidity: 93%   Direction: 240°WSW
Pressure: 29.68"   Gusts: NA
Location:  55.62°N, 4.66°W
Report Text: EGPK 221020Z 24008KT 9000 -SHRA FEW009 SCT025 BKN038 09/08 Q1005
Loading
Personal Weather Stations






























Interactive Weather Map New forecast layout! Learn more

10-Day Weather Forecast

Advertisements
Track Severe Weather on mobile